CST,Max TemperatureF,Mean TemperatureF,Min TemperatureF,Max Dew PointF,MeanDew PointF,Min DewpointF,Max Humidity, Mean Humidity, Min Humidity, Max Sea Level PressureIn, Mean Sea Level PressureIn, Min Sea Level PressureIn, Max VisibilityMiles, Mean VisibilityMiles, Min VisibilityMiles, Max Wind SpeedMPH, Mean Wind SpeedMPH, Max Gust SpeedMPH,PrecipitationIn, CloudCover, Events, WindDirDegrees
2012-2-1,48,39,30,43,34,28,100,89,71,30.12,30.08,30.02,10,4,0,8,3,,0.00,5,Fog,170
2012-2-2,53,40,28,39,31,25,93,77,44,30.28,30.22,30.15,10,10,7,8,1,,0.00,0,,91
2012-2-3,35,34,33,34,31,30,93,88,87,30.39,30.34,30.31,7,3,0,23,14,29,0.00,7,Fog,64
2012-2-4,39,36,33,32,29,28,87,81,70,30.33,30.29,30.23,10,6,3,21,15,25,0.00,5,,29
2012-2-5,30,29,28,28,27,27,93,90,86,30.37,30.33,30.30,10,4,1,12,7,,0.00,7,,311
2012-2-6,44,35,26,34,28,23,93,85,57,30.25,30.16,30.09,10,5,0,10,8,,0.00,4,Fog,225
2012-2-7,35,32,28,30,26,19,87,80,69,30.46,30.36,30.18,10,10,7,20,12,23,0.00,7,,11
2012-2-8,33,24,15,18,12,3,86,59,34,30.47,30.41,30.32,10,10,10,9,6,,0.00,2,,293
2012-2-9,39,26,12,28,20,9,92,76,56,30.30,30.13,29.99,10,10,7,22,10,26,0.00,5,,215
2012-2-10,28,19,10,25,5,-2,86,60,46,30.41,30.17,29.99,10,10,5,28,19,34,0.00,4,,329
2012-2-11,26,14,3,0,-7,-9,61,41,21,30.63,30.56,30.50,10,10,10,22,16,29,0.00,0,,307
2012-2-12,35,19,3,5,-3,-9,78,45,14,30.51,30.40,30.22,10,10,10,18,8,23,0.00,0,,244
2012-2-13,32,29,26,30,21,3,93,74,34,30.08,29.87,29.74,10,5,2,17,13,22,0.00,8,Snow,168
2012-2-14,42,35,28,32,28,25,93,83,61,29.82,29.77,29.72,10,6,2,18,7,20,0.00,5,Snow,206
2012-2-15,48,37,26,37,32,25,93,80,58,29.97,29.91,29.86,10,5,2,9,6,,0.00,5,,168
2012-2-16,42,33,24,32,26,21,93,74,42,30.17,30.13,30.05,10,8,2,21,9,25,0.00,1,,274
2012-2-17,44,36,28,30,26,21,86,69,46,30.16,30.05,29.97,10,10,10,18,10,24,0.00,3,,266
2012-2-18,39,28,17,19,17,12,86,65,39,30.27,30.20,30.16,10,10,10,9,4,,0.00,0,,334
2012-2-19,44,32,19,27,21,14,86,62,39,30.15,30.10,30.05,10,10,10,16,9,18,0.00,0,,146
2012-2-20,48,38,28,34,24,19,87,62,43,30.08,29.94,29.73,10,10,7,29,17,37,0.02,2,Rain,132
2012-2-21,44,37,30,36,30,27,93,76,57,29.71,29.65,29.57,10,10,5,29,16,34,0.01,5,Rain,255
2012-2-22,50,39,28,36,31,25,87,76,54,29.61,29.48,29.41,10,9,2,18,6,23,0.00,5,Snow,233
2012-2-23,37,32,26,34,31,25,93,87,75,29.62,29.46,29.39,10,7,1,17,8,25,0.04,6,Rain-Snow,62
2012-2-24,32,26,21,28,21,12,87,76,63,30.10,29.89,29.67,10,9,1,26,16,32,0.00,5,Snow,303
2012-2-25,28,21,14,19,14,9,86,72,63,30.26,30.17,30.07,10,9,2,20,12,28,0.00,3,Snow,274
2012-2-26,46,36,26,34,24,18,70,61,49,30.09,29.85,29.69,10,10,10,36,26,47,0.00,0,,220
2012-2-27,35,27,19,21,17,12,80,67,52,30.47,30.36,30.16,10,10,10,24,15,30,0.00,0,,286
2012-2-28,39,34,30,36,29,23,87,79,69,30.35,30.04,29.57,10,8,2,28,15,34,0.20,8,Rain-Snow,120
2012-2-29,46,40,33,45,33,28,93,84,75,29.70,29.37,29.23,10,6,0,32,24,43,0.23,8,Rain-Snow,239